Mocksville, North Carolina
Current Conditions -  °F | °C
As of 1:15 PM on Friday 19 Dec 2014 (Local Time) from KEXX Reporting Station
Clear Clear  
Wind Chill: 53°   Ceiling: Unl
Heat Index: 53°   Visibility: 10mi
Dew Point: 20°   Wind: 5mph
Humidity: 28%   Direction: 320°NW
Pressure: 30.11"   Gusts: NA
Location:  35.89°N, 80.56°W
Report Text: KEXX 191815Z AUTO 32004KT 10SM CLR 12/M06 A3011 RMK AO2 T01151064
Loading
Personal Weather Stations






























Interactive Weather Map New forecast layout! Learn more

10-Day Weather Forecast

Advertisements
Track Severe Weather on mobile